DLH535 LIPZ-EGPH
Flight info
| Callsign | DLH535 |
|---|---|
| Flight time | 2h 9m |
| Altitude | 38000 |
| Route | ROKIB DCT BRENO DCT KONIN M726 MAH DCT ASPAT DCT MASEK L604 MAPOX DCT ABILU DCT SOGPO DCT BERGI DCT MIMVA L602 NALAX L46 ESHIN N110 ERKIT DCT AGPED |
| Aircraft | B77W/H-SDE1E2E3FGHIJ2J3J4J5M1RWXY/LB1D1 |
Departure
| Time | 2026-04-23 18:53 |
|---|---|
| Airport | Venice Marco Polo Airport (LIPZ) |
Arrival
| Time | 2026-04-23 21:02 |
|---|---|
| Airport | Edinburgh Airport (EGPH) |
| Time | Latitude | Longitude | Altitude | Speed | Heading |
|---|---|---|---|---|---|
| 2026-04-23 18:28 | 45.50492 | 12.34245 | 24 ft | 0 kts | 267° |
| 2026-04-23 18:29 | 45.50492 | 12.34246 | 24 ft | 0 kts | 267° |
| 2026-04-23 18:40 | 45.50492 | 12.34247 | 20 ft | 0 kts | 267° |
| 2026-04-23 18:41 | 45.50493 | 12.34247 | 20 ft | 0 kts | 267° |
| 2026-04-23 18:41 | 45.50492 | 12.34247 | 20 ft | 0 kts | 267° |
| 2026-04-23 18:41 | 45.50493 | 12.34247 | 20 ft | 0 kts | 267° |
| 2026-04-23 18:43 | 45.50494 | 12.34275 | 22 ft | 4 kts | 259° |
| 2026-04-23 18:43 | 45.50498 | 12.34311 | 26 ft | 4 kts | 285° |
| 2026-04-23 18:43 | 45.50488 | 12.34338 | 25 ft | 4 kts | 323° |
| 2026-04-23 18:44 | 45.50465 | 12.34346 | 26 ft | 4 kts | 5° |
| 2026-04-23 18:44 | 45.50449 | 12.34345 | 25 ft | 1 kts | 357° |
| 2026-04-23 18:44 | 45.50447 | 12.34345 | 24 ft | 14 kts | 357° |
| 2026-04-23 18:45 | 45.50450 | 12.34345 | 25 ft | 1 kts | 357° |
| 2026-04-23 18:45 | 45.50459 | 12.34344 | 25 ft | 2 kts | 357° |
| 2026-04-23 18:46 | 45.50473 | 12.34343 | 25 ft | 2 kts | 357° |
| 2026-04-23 18:46 | 45.50493 | 12.34342 | 26 ft | 3 kts | 358° |
| 2026-04-23 18:46 | 45.50517 | 12.34347 | 24 ft | 4 kts | 15° |
| 2026-04-23 18:46 | 45.50542 | 12.34365 | 22 ft | 4 kts | 33° |
| 2026-04-23 18:47 | 45.50566 | 12.34392 | 20 ft | 5 kts | 40° |
| 2026-04-23 18:47 | 45.50589 | 12.34428 | 20 ft | 5 kts | 56° |
| 2026-04-23 18:47 | 45.50599 | 12.34528 | 20 ft | 17 kts | 87° |
| 2026-04-23 18:47 | 45.50608 | 12.34697 | 20 ft | 17 kts | 81° |
| 2026-04-23 18:48 | 45.50671 | 12.34841 | 20 ft | 17 kts | 45° |
| 2026-04-23 18:48 | 45.50761 | 12.34956 | 20 ft | 17 kts | 42° |
| 2026-04-23 18:48 | 45.50803 | 12.35009 | 21 ft | 0 kts | 42° |
| 2026-04-23 18:48 | 45.50858 | 12.35080 | 23 ft | 22 kts | 41° |
| 2026-04-23 18:49 | 45.50953 | 12.35222 | 23 ft | 7 kts | 64° |
| 2026-04-23 18:49 | 45.50953 | 12.35223 | 23 ft | 0 kts | 64° |
| 2026-04-23 18:49 | 45.50954 | 12.35224 | 23 ft | 0 kts | 64° |
| 2026-04-23 18:50 | 45.50954 | 12.35225 | 23 ft | 0 kts | 65° |
| 2026-04-23 18:50 | 45.50955 | 12.35228 | 23 ft | 0 kts | 65° |
| 2026-04-23 18:50 | 45.50955 | 12.35229 | 23 ft | 0 kts | 66° |
| 2026-04-23 18:50 | 45.50960 | 12.35247 | 25 ft | 10 kts | 69° |
| 2026-04-23 18:51 | 45.51028 | 12.35485 | 26 ft | 42 kts | 50° |
| 2026-04-23 18:51 | 45.51309 | 12.35862 | 20 ft | 68 kts | 43° |
| 2026-04-23 18:51 | 45.51642 | 12.36287 | 20 ft | 36 kts | 42° |
| 2026-04-23 18:51 | 45.51639 | 12.36550 | 20 ft | 24 kts | 143° |
| 2026-04-23 18:52 | 45.51549 | 12.36520 | 22 ft | 0 kts | 221° |
| 2026-04-23 18:52 | 45.51547 | 12.36518 | 22 ft | 3 kts | 220° |
| 2026-04-23 18:53 | 45.51298 | 12.36205 | 19 ft | 107 kts | 223° |
| 2026-04-23 18:53 | 45.50457 | 12.35144 | 119 ft | 212 kts | 220° |
| 2026-04-23 18:53 | 45.49291 | 12.33746 | 1774 ft | 210 kts | 224° |
| 2026-04-23 18:53 | 45.48271 | 12.32404 | 3362 ft | 191 kts | 225° |
| 2026-04-23 18:54 | 45.47309 | 12.31126 | 4200 ft | 190 kts | 225° |
| 2026-04-23 18:54 | 45.46298 | 12.29807 | 4685 ft | 206 kts | 224° |
| 2026-04-23 18:54 | 45.45193 | 12.28382 | 5134 ft | 221 kts | 223° |
| 2026-04-23 18:54 | 45.44019 | 12.26872 | 5640 ft | 234 kts | 223° |
| 2026-04-23 18:55 | 45.42774 | 12.25266 | 6150 ft | 249 kts | 223° |
| 2026-04-23 18:55 | 45.41460 | 12.23578 | 6653 ft | 259 kts | 223° |
| 2026-04-23 18:55 | 45.40122 | 12.21845 | 7086 ft | 260 kts | 227° |
| 2026-04-23 18:55 | 45.39196 | 12.19667 | 7472 ft | 259 kts | 258° |
| 2026-04-23 18:56 | 45.39183 | 12.17155 | 7967 ft | 254 kts | 289° |
| 2026-04-23 18:56 | 45.39966 | 12.14944 | 8432 ft | 249 kts | 312° |
| 2026-04-23 18:56 | 45.41194 | 12.13231 | 8872 ft | 246 kts | 333° |
| 2026-04-23 18:56 | 45.42798 | 12.12543 | 9349 ft | 242 kts | 2° |
| 2026-04-23 18:57 | 45.44433 | 12.13011 | 9848 ft | 241 kts | 25° |
| 2026-04-23 18:57 | 45.45811 | 12.14309 | 10289 ft | 241 kts | 40° |
| 2026-04-23 18:57 | 45.46828 | 12.16183 | 10674 ft | 243 kts | 64° |
| 2026-04-23 18:57 | 45.47481 | 12.18402 | 11165 ft | 244 kts | 64° |
| 2026-04-23 18:58 | 45.48147 | 12.20647 | 11604 ft | 248 kts | 65° |
| 2026-04-23 18:58 | 45.48843 | 12.22903 | 12047 ft | 247 kts | 57° |
| 2026-04-23 18:58 | 45.50082 | 12.24535 | 12477 ft | 248 kts | 25° |
| 2026-04-23 18:58 | 45.51847 | 12.25097 | 12739 ft | 279 kts | 2° |
| 2026-04-23 18:59 | 45.53872 | 12.24582 | 12989 ft | 314 kts | 344° |
| 2026-04-23 18:59 | 45.55906 | 12.23052 | 13216 ft | 350 kts | 327° |
| 2026-04-23 18:59 | 45.57801 | 12.20648 | 13592 ft | 377 kts | 319° |
| 2026-04-23 18:59 | 45.59649 | 12.17890 | 14342 ft | 389 kts | 316° |
| 2026-04-23 19:00 | 45.61513 | 12.15035 | 15195 ft | 395 kts | 317° |
| 2026-04-23 19:00 | 45.63390 | 12.12207 | 16208 ft | 397 kts | 317° |
| 2026-04-23 19:00 | 45.65317 | 12.09370 | 17220 ft | 400 kts | 318° |
| 2026-04-23 19:00 | 45.67291 | 12.06524 | 18171 ft | 404 kts | 318° |
| 2026-04-23 19:01 | 45.69299 | 12.03667 | 18990 ft | 409 kts | 318° |
| 2026-04-23 19:01 | 45.71338 | 12.00785 | 19806 ft | 414 kts | 318° |
| 2026-04-23 19:01 | 45.73321 | 11.97988 | 20584 ft | 419 kts | 318° |
| 2026-04-23 19:01 | 45.75404 | 11.95048 | 21391 ft | 422 kts | 318° |
| 2026-04-23 19:02 | 45.77509 | 11.92074 | 22155 ft | 427 kts | 318° |
| 2026-04-23 19:02 | 45.79639 | 11.89061 | 22861 ft | 433 kts | 318° |
| 2026-04-23 19:02 | 45.81796 | 11.86004 | 23557 ft | 439 kts | 318° |
| 2026-04-23 19:02 | 45.83969 | 11.82918 | 24216 ft | 442 kts | 318° |
| 2026-04-23 19:03 | 45.86169 | 11.79790 | 24823 ft | 446 kts | 318° |
| 2026-04-23 19:03 | 45.88362 | 11.76670 | 25362 ft | 451 kts | 318° |
| 2026-04-23 19:03 | 45.90605 | 11.73515 | 25851 ft | 453 kts | 321° |
| 2026-04-23 19:03 | 45.93118 | 11.70798 | 26316 ft | 453 kts | 333° |
| 2026-04-23 19:04 | 45.95937 | 11.68770 | 26876 ft | 453 kts | 341° |
| 2026-04-23 19:04 | 45.98929 | 11.67408 | 27412 ft | 450 kts | 352° |
| 2026-04-23 19:04 | 46.02005 | 11.66520 | 27757 ft | 452 kts | 353° |
| 2026-04-23 19:04 | 46.05108 | 11.65658 | 28248 ft | 456 kts | 353° |
| 2026-04-23 19:05 | 46.08235 | 11.64785 | 28704 ft | 460 kts | 353° |
| 2026-04-23 19:05 | 46.11391 | 11.63889 | 29109 ft | 462 kts | 353° |
| 2026-04-23 19:05 | 46.14555 | 11.62970 | 29530 ft | 466 kts | 353° |
| 2026-04-23 19:05 | 46.17746 | 11.62032 | 29946 ft | 469 kts | 353° |
| 2026-04-23 19:06 | 46.20946 | 11.61076 | 30469 ft | 469 kts | 353° |
| 2026-04-23 19:06 | 46.24134 | 11.60116 | 30996 ft | 467 kts | 353° |
| 2026-04-23 19:06 | 46.27309 | 11.59158 | 31558 ft | 465 kts | 353° |
| 2026-04-23 19:06 | 46.30468 | 11.58208 | 32108 ft | 463 kts | 353° |
| 2026-04-23 19:07 | 46.33618 | 11.57262 | 32634 ft | 462 kts | 353° |
| 2026-04-23 19:07 | 46.36768 | 11.56317 | 33112 ft | 461 kts | 354° |
| 2026-04-23 19:07 | 46.39870 | 11.55385 | 33534 ft | 462 kts | 354° |
| 2026-04-23 19:07 | 46.43030 | 11.54436 | 33792 ft | 464 kts | 354° |
| 2026-04-23 19:08 | 46.46191 | 11.53485 | 34208 ft | 463 kts | 354° |
| 2026-04-23 19:08 | 46.49349 | 11.52529 | 34617 ft | 461 kts | 354° |
| 2026-04-23 19:08 | 46.52484 | 11.51581 | 35028 ft | 459 kts | 353° |
| 2026-04-23 19:08 | 46.55609 | 11.50636 | 35419 ft | 458 kts | 353° |
| 2026-04-23 19:09 | 46.58724 | 11.49693 | 35831 ft | 457 kts | 353° |
| 2026-04-23 19:09 | 46.61838 | 11.48745 | 36172 ft | 457 kts | 353° |
| 2026-04-23 19:09 | 46.64951 | 11.47802 | 36479 ft | 457 kts | 353° |
| 2026-04-23 19:09 | 46.68067 | 11.46858 | 36806 ft | 457 kts | 353° |
| 2026-04-23 19:10 | 46.71183 | 11.45910 | 37147 ft | 456 kts | 353° |
| 2026-04-23 19:10 | 46.74275 | 11.44965 | 37662 ft | 452 kts | 352° |
| 2026-04-23 19:10 | 46.77360 | 11.44025 | 37891 ft | 454 kts | 352° |
| 2026-04-23 19:11 | 46.83564 | 11.42133 | 38133 ft | 460 kts | 352° |
| 2026-04-23 19:11 | 46.89791 | 11.40220 | 38198 ft | 454 kts | 352° |
| 2026-04-23 19:12 | 46.94964 | 11.38633 | 38204 ft | 451 kts | 353° |
| 2026-04-23 19:12 | 47.02124 | 11.37538 | 38220 ft | 443 kts | 3° |
| 2026-04-23 19:13 | 47.08272 | 11.37527 | 38235 ft | 442 kts | 4° |
| 2026-04-23 19:13 | 47.14429 | 11.37513 | 38236 ft | 442 kts | 3° |
| 2026-04-23 19:14 | 47.20597 | 11.37472 | 38233 ft | 443 kts | 3° |
| 2026-04-23 19:14 | 47.26775 | 11.37411 | 38226 ft | 445 kts | 3° |
| 2026-04-23 19:15 | 47.32972 | 11.37345 | 38246 ft | 446 kts | 3° |
| 2026-04-23 19:15 | 47.39219 | 11.37283 | 38240 ft | 453 kts | 3° |
| 2026-04-23 19:16 | 47.45575 | 11.37218 | 38242 ft | 460 kts | 3° |
| 2026-04-23 19:16 | 47.51974 | 11.37150 | 38255 ft | 465 kts | 3° |
| 2026-04-23 19:17 | 47.61759 | 11.37050 | 38237 ft | 470 kts | 3° |
| 2026-04-23 19:17 | 47.68312 | 11.36981 | 38254 ft | 472 kts | 3° |
| 2026-04-23 19:18 | 47.74894 | 11.36912 | 38282 ft | 474 kts | 3° |
| 2026-04-23 19:18 | 47.81500 | 11.36843 | 38267 ft | 475 kts | 3° |
| 2026-04-23 19:19 | 47.91424 | 11.36440 | 38279 ft | 477 kts | 360° |
| 2026-04-23 19:20 | 48.01329 | 11.35457 | 38266 ft | 477 kts | 0° |
| 2026-04-23 19:20 | 48.07948 | 11.34824 | 38257 ft | 478 kts | 358° |
| 2026-04-23 19:21 | 48.17843 | 11.32857 | 38258 ft | 478 kts | 356° |
| 2026-04-23 19:22 | 48.24422 | 11.31424 | 38268 ft | 479 kts | 352° |
| 2026-04-23 19:22 | 48.33959 | 11.26654 | 38270 ft | 484 kts | 341° |
| 2026-04-23 19:23 | 48.40176 | 11.22713 | 38260 ft | 484 kts | 341° |
| 2026-04-23 19:24 | 48.49472 | 11.16863 | 38273 ft | 484 kts | 341° |
| 2026-04-23 19:24 | 48.58821 | 11.11039 | 38246 ft | 485 kts | 341° |
| 2026-04-23 19:25 | 48.71379 | 11.03184 | 38244 ft | 485 kts | 341° |
| 2026-04-23 19:26 | 48.80527 | 10.97432 | 38243 ft | 485 kts | 341° |
| 2026-04-23 19:27 | 48.96122 | 10.87573 | 38297 ft | 485 kts | 341° |
| 2026-04-23 19:28 | 49.08549 | 10.79668 | 38313 ft | 485 kts | 341° |
| 2026-04-23 19:29 | 49.17853 | 10.73721 | 38315 ft | 485 kts | 341° |
| 2026-04-23 19:30 | 49.27104 | 10.67405 | 38246 ft | 486 kts | 338° |
| 2026-04-23 19:31 | 49.36296 | 10.60723 | 38262 ft | 487 kts | 338° |
| 2026-04-23 19:31 | 49.42447 | 10.56288 | 38263 ft | 487 kts | 338° |
| 2026-04-23 19:32 | 49.48590 | 10.51873 | 38251 ft | 488 kts | 338° |
| 2026-04-23 19:32 | 49.54737 | 10.47447 | 38248 ft | 488 kts | 338° |
| 2026-04-23 19:33 | 49.60884 | 10.43006 | 38254 ft | 487 kts | 338° |
| 2026-04-23 19:33 | 49.70052 | 10.36358 | 38255 ft | 488 kts | 338° |
| 2026-04-23 19:34 | 49.76205 | 10.31882 | 38274 ft | 489 kts | 338° |
| 2026-04-23 19:35 | 49.85428 | 10.25145 | 38269 ft | 489 kts | 338° |
| 2026-04-23 19:35 | 49.91579 | 10.20636 | 38264 ft | 489 kts | 338° |
| 2026-04-23 19:36 | 49.97723 | 10.16120 | 38275 ft | 488 kts | 338° |
| 2026-04-23 19:36 | 50.03861 | 10.11596 | 38264 ft | 488 kts | 338° |
| 2026-04-23 19:37 | 50.09998 | 10.07060 | 38256 ft | 489 kts | 337° |
| 2026-04-23 19:37 | 50.16149 | 10.02501 | 38275 ft | 490 kts | 337° |
| 2026-04-23 19:38 | 50.22186 | 9.98013 | 38267 ft | 491 kts | 337° |
| 2026-04-23 19:38 | 50.27309 | 9.94194 | 38284 ft | 491 kts | 337° |
| 2026-04-23 19:39 | 50.34480 | 9.88833 | 38278 ft | 491 kts | 337° |
| 2026-04-23 19:39 | 50.40656 | 9.84202 | 38279 ft | 491 kts | 337° |
| 2026-04-23 19:40 | 50.45780 | 9.80350 | 38279 ft | 492 kts | 337° |
| 2026-04-23 19:40 | 50.51940 | 9.75706 | 38274 ft | 491 kts | 336° |
| 2026-04-23 19:41 | 50.58091 | 9.71055 | 38284 ft | 491 kts | 336° |
| 2026-04-23 19:41 | 50.64247 | 9.66386 | 38284 ft | 491 kts | 336° |
| 2026-04-23 19:42 | 50.70335 | 9.61459 | 38277 ft | 494 kts | 329° |
| 2026-04-23 19:42 | 50.75683 | 9.54605 | 38285 ft | 498 kts | 316° |
| 2026-04-23 19:43 | 50.80173 | 9.46218 | 38285 ft | 500 kts | 311° |
| 2026-04-23 19:43 | 50.84521 | 9.37637 | 38274 ft | 501 kts | 310° |
| 2026-04-23 19:44 | 50.88911 | 9.29075 | 38272 ft | 501 kts | 311° |
| 2026-04-23 19:44 | 50.93335 | 9.20523 | 38273 ft | 502 kts | 311° |
| 2026-04-23 19:45 | 50.97767 | 9.11943 | 38279 ft | 503 kts | 311° |
| 2026-04-23 19:45 | 51.02158 | 9.03405 | 38270 ft | 503 kts | 311° |
| 2026-04-23 19:46 | 51.06519 | 8.94892 | 38273 ft | 503 kts | 311° |
| 2026-04-23 19:46 | 51.10900 | 8.86315 | 38281 ft | 503 kts | 310° |
| 2026-04-23 19:47 | 51.14895 | 8.77172 | 38278 ft | 505 kts | 300° |
| 2026-04-23 19:47 | 51.18113 | 8.67231 | 38298 ft | 504 kts | 298° |
| 2026-04-23 19:48 | 51.21268 | 8.57246 | 38285 ft | 505 kts | 298° |
| 2026-04-23 19:48 | 51.24458 | 8.47277 | 38295 ft | 504 kts | 298° |
| 2026-04-23 19:49 | 51.27667 | 8.37302 | 38297 ft | 505 kts | 298° |
| 2026-04-23 19:49 | 51.31050 | 8.27490 | 38302 ft | 503 kts | 303° |
| 2026-04-23 19:50 | 51.34814 | 8.18048 | 38313 ft | 503 kts | 304° |
| 2026-04-23 19:50 | 51.38622 | 8.08635 | 38307 ft | 504 kts | 303° |
| 2026-04-23 19:51 | 51.42300 | 7.99377 | 38316 ft | 504 kts | 303° |
| 2026-04-23 19:51 | 51.46001 | 7.89927 | 38317 ft | 504 kts | 303° |
| 2026-04-23 19:52 | 51.49713 | 7.80391 | 38337 ft | 504 kts | 303° |
| 2026-04-23 19:52 | 51.53419 | 7.70837 | 38307 ft | 504 kts | 302° |
| 2026-04-23 19:53 | 51.57116 | 7.61278 | 38328 ft | 503 kts | 302° |
| 2026-04-23 19:53 | 51.60807 | 7.51704 | 38325 ft | 503 kts | 302° |
| 2026-04-23 19:54 | 51.64486 | 7.42125 | 38319 ft | 503 kts | 302° |
| 2026-04-23 19:54 | 51.68155 | 7.32534 | 38343 ft | 502 kts | 302° |
| 2026-04-23 19:55 | 51.71813 | 7.22939 | 38341 ft | 503 kts | 301° |
| 2026-04-23 19:55 | 51.75466 | 7.13318 | 38354 ft | 503 kts | 301° |
| 2026-04-23 19:56 | 51.79113 | 7.03675 | 38352 ft | 503 kts | 301° |
| 2026-04-23 19:56 | 51.82684 | 6.94201 | 38358 ft | 504 kts | 301° |
| 2026-04-23 19:57 | 51.86320 | 6.84518 | 38359 ft | 504 kts | 301° |
| 2026-04-23 19:57 | 51.89949 | 6.74817 | 38360 ft | 504 kts | 301° |
| 2026-04-23 19:58 | 51.93572 | 6.65092 | 38362 ft | 504 kts | 300° |
| 2026-04-23 19:58 | 51.97190 | 6.55345 | 38363 ft | 504 kts | 300° |
| 2026-04-23 19:59 | 52.00791 | 6.45604 | 38372 ft | 504 kts | 300° |
| 2026-04-23 19:59 | 52.04368 | 6.35895 | 38372 ft | 504 kts | 300° |
| 2026-04-23 20:00 | 52.07961 | 6.26103 | 38372 ft | 505 kts | 300° |
| 2026-04-23 20:00 | 52.11549 | 6.16286 | 38377 ft | 505 kts | 300° |
| 2026-04-23 20:01 | 52.15134 | 6.06441 | 38382 ft | 505 kts | 299° |
| 2026-04-23 20:01 | 52.18627 | 5.96811 | 38373 ft | 504 kts | 299° |
| 2026-04-23 20:02 | 52.22186 | 5.86959 | 38379 ft | 504 kts | 299° |
| 2026-04-23 20:02 | 52.25741 | 5.77082 | 38381 ft | 504 kts | 299° |
| 2026-04-23 20:03 | 52.29281 | 5.67205 | 38390 ft | 504 kts | 299° |
| 2026-04-23 20:03 | 52.32789 | 5.57380 | 38398 ft | 503 kts | 298° |
| 2026-04-23 20:04 | 52.36311 | 5.47477 | 38403 ft | 503 kts | 298° |
| 2026-04-23 20:04 | 52.39826 | 5.37557 | 38409 ft | 504 kts | 298° |
| 2026-04-23 20:05 | 52.43329 | 5.27628 | 38408 ft | 504 kts | 298° |
| 2026-04-23 20:05 | 52.46837 | 5.17648 | 38404 ft | 505 kts | 298° |
| 2026-04-23 20:06 | 52.50344 | 5.07630 | 38401 ft | 505 kts | 298° |
| 2026-04-23 20:06 | 52.53760 | 4.97834 | 38411 ft | 505 kts | 297° |
| 2026-04-23 20:07 | 52.57221 | 4.87869 | 38406 ft | 506 kts | 297° |
| 2026-04-23 20:07 | 52.60703 | 4.77801 | 38387 ft | 506 kts | 297° |
| 2026-04-23 20:08 | 52.64173 | 4.67729 | 38393 ft | 506 kts | 297° |
| 2026-04-23 20:08 | 52.67638 | 4.57632 | 38411 ft | 506 kts | 297° |
| 2026-04-23 20:09 | 52.71088 | 4.47537 | 38396 ft | 505 kts | 297° |
| 2026-04-23 20:09 | 52.74530 | 4.37422 | 38406 ft | 505 kts | 297° |
| 2026-04-23 20:10 | 52.77381 | 4.29015 | 38421 ft | 504 kts | 297° |
| 2026-04-23 20:10 | 52.81355 | 4.17245 | 38426 ft | 504 kts | 297° |
| 2026-04-23 20:11 | 52.84759 | 4.07122 | 38433 ft | 503 kts | 296° |
| 2026-04-23 20:11 | 52.88086 | 3.97184 | 38425 ft | 504 kts | 296° |
| 2026-04-23 20:12 | 52.91475 | 3.87022 | 38423 ft | 504 kts | 296° |
| 2026-04-23 20:12 | 52.94855 | 3.76843 | 38427 ft | 504 kts | 296° |
| 2026-04-23 20:13 | 52.98227 | 3.66647 | 38428 ft | 504 kts | 296° |
| 2026-04-23 20:13 | 53.01586 | 3.56449 | 38423 ft | 504 kts | 296° |
| 2026-04-23 20:14 | 53.04940 | 3.46220 | 38422 ft | 504 kts | 295° |
| 2026-04-23 20:14 | 53.08281 | 3.35958 | 38423 ft | 504 kts | 294° |
| 2026-04-23 20:15 | 53.11108 | 3.25334 | 38431 ft | 501 kts | 289° |
| 2026-04-23 20:15 | 53.13716 | 3.14554 | 38421 ft | 502 kts | 289° |
| 2026-04-23 20:16 | 53.16304 | 3.03826 | 38455 ft | 502 kts | 288° |
| 2026-04-23 20:16 | 53.18880 | 2.93235 | 38443 ft | 503 kts | 289° |
| 2026-04-23 20:17 | 53.21517 | 2.82407 | 38442 ft | 503 kts | 289° |
| 2026-04-23 20:17 | 53.24140 | 2.71589 | 38439 ft | 503 kts | 288° |
| 2026-04-23 20:18 | 53.26752 | 2.60758 | 38439 ft | 502 kts | 288° |
| 2026-04-23 20:18 | 53.29350 | 2.49923 | 38447 ft | 502 kts | 288° |
| 2026-04-23 20:19 | 53.31925 | 2.39129 | 38439 ft | 502 kts | 288° |
| 2026-04-23 20:19 | 53.34501 | 2.28269 | 38443 ft | 502 kts | 288° |
| 2026-04-23 20:20 | 53.37064 | 2.17400 | 38452 ft | 502 kts | 288° |
| 2026-04-23 20:20 | 53.39618 | 2.06523 | 38455 ft | 502 kts | 288° |
| 2026-04-23 20:21 | 53.42119 | 1.95829 | 38461 ft | 502 kts | 288° |
| 2026-04-23 20:21 | 53.44660 | 1.84916 | 38464 ft | 502 kts | 288° |
| 2026-04-23 20:22 | 53.47194 | 1.73976 | 38464 ft | 503 kts | 288° |
| 2026-04-23 20:22 | 53.49715 | 1.63031 | 38467 ft | 503 kts | 288° |
| 2026-04-23 20:23 | 53.52230 | 1.52050 | 38478 ft | 503 kts | 288° |
| 2026-04-23 20:23 | 53.54739 | 1.41038 | 38469 ft | 504 kts | 288° |
| 2026-04-23 20:24 | 53.57239 | 1.30013 | 38466 ft | 505 kts | 288° |
| 2026-04-23 20:24 | 53.59310 | 1.20835 | 38473 ft | 505 kts | 288° |
| 2026-04-23 20:25 | 53.61796 | 1.09765 | 38470 ft | 505 kts | 288° |
| 2026-04-23 20:25 | 53.64226 | 0.98887 | 38481 ft | 506 kts | 288° |
| 2026-04-23 20:26 | 53.66697 | 0.87766 | 38466 ft | 507 kts | 288° |
| 2026-04-23 20:26 | 53.69161 | 0.76614 | 38473 ft | 507 kts | 288° |
| 2026-04-23 20:27 | 53.71614 | 0.65456 | 38472 ft | 507 kts | 288° |
| 2026-04-23 20:27 | 53.74059 | 0.54275 | 38476 ft | 507 kts | 288° |
| 2026-04-23 20:28 | 53.76487 | 0.43097 | 38477 ft | 507 kts | 288° |
| 2026-04-23 20:28 | 53.78910 | 0.31903 | 38472 ft | 506 kts | 288° |
| 2026-04-23 20:29 | 53.81300 | 0.20798 | 38475 ft | 505 kts | 288° |
| 2026-04-23 20:29 | 53.83686 | 0.09642 | 38473 ft | 504 kts | 288° |
| 2026-04-23 20:30 | 53.86014 | -0.01305 | 38491 ft | 503 kts | 288° |
| 2026-04-23 20:30 | 53.89547 | -0.18025 | 38477 ft | 501 kts | 288° |
| 2026-04-23 20:31 | 53.91882 | -0.29148 | 38478 ft | 500 kts | 288° |
| 2026-04-23 20:31 | 53.94200 | -0.40259 | 38476 ft | 499 kts | 288° |
| 2026-04-23 20:32 | 53.96506 | -0.51370 | 38482 ft | 499 kts | 288° |
| 2026-04-23 20:32 | 53.98801 | -0.62489 | 38483 ft | 499 kts | 288° |
| 2026-04-23 20:33 | 54.01086 | -0.73605 | 38479 ft | 497 kts | 289° |
| 2026-04-23 20:33 | 54.02560 | -0.78924 | 38471 ft | 499 kts | 301° |
| 2026-04-23 20:33 | 54.04673 | -0.83606 | 38489 ft | 501 kts | 312° |
| 2026-04-23 20:34 | 54.07277 | -0.87566 | 38480 ft | 503 kts | 324° |
| 2026-04-23 20:34 | 54.10219 | -0.90649 | 38498 ft | 503 kts | 329° |
| 2026-04-23 20:34 | 54.16334 | -0.96533 | 38483 ft | 505 kts | 330° |
| 2026-04-23 20:35 | 54.22328 | -1.02346 | 38483 ft | 506 kts | 329° |
| 2026-04-23 20:35 | 54.28419 | -1.08416 | 38494 ft | 506 kts | 329° |
| 2026-04-23 20:36 | 54.34477 | -1.14537 | 38477 ft | 505 kts | 329° |
| 2026-04-23 20:36 | 54.40508 | -1.20654 | 38477 ft | 502 kts | 329° |
| 2026-04-23 20:37 | 54.46505 | -1.26751 | 38479 ft | 500 kts | 329° |
| 2026-04-23 20:37 | 54.52489 | -1.32850 | 38483 ft | 498 kts | 329° |
| 2026-04-23 20:38 | 54.58403 | -1.38899 | 38480 ft | 495 kts | 329° |
| 2026-04-23 20:38 | 54.61329 | -1.41899 | 38469 ft | 484 kts | 329° |
| 2026-04-23 20:38 | 54.64217 | -1.44865 | 38471 ft | 481 kts | 329° |
| 2026-04-23 20:39 | 54.67097 | -1.47828 | 37904 ft | 485 kts | 329° |
| 2026-04-23 20:39 | 54.69998 | -1.50820 | 37248 ft | 484 kts | 329° |
| 2026-04-23 20:39 | 54.72886 | -1.53801 | 36531 ft | 483 kts | 328° |
| 2026-04-23 20:39 | 54.75768 | -1.56782 | 35762 ft | 483 kts | 328° |
| 2026-04-23 20:40 | 54.78664 | -1.59782 | 34943 ft | 485 kts | 328° |
| 2026-04-23 20:40 | 54.81562 | -1.62790 | 34001 ft | 487 kts | 329° |
| 2026-04-23 20:40 | 54.84436 | -1.65781 | 33028 ft | 470 kts | 330° |
| 2026-04-23 20:40 | 54.87179 | -1.68640 | 32171 ft | 452 kts | 330° |
| 2026-04-23 20:41 | 54.89863 | -1.71439 | 31627 ft | 448 kts | 330° |
| 2026-04-23 20:41 | 54.92529 | -1.74221 | 31018 ft | 445 kts | 330° |
| 2026-04-23 20:41 | 54.95178 | -1.76991 | 30416 ft | 442 kts | 330° |
| 2026-04-23 20:41 | 54.97809 | -1.79745 | 29740 ft | 439 kts | 330° |
| 2026-04-23 20:42 | 55.00377 | -1.82440 | 29141 ft | 435 kts | 330° |
| 2026-04-23 20:42 | 55.02993 | -1.85189 | 28547 ft | 431 kts | 330° |
| 2026-04-23 20:42 | 55.05516 | -1.87844 | 27967 ft | 428 kts | 330° |
| 2026-04-23 20:42 | 55.08054 | -1.90518 | 27376 ft | 425 kts | 330° |
| 2026-04-23 20:43 | 55.10574 | -1.93206 | 26786 ft | 420 kts | 328° |
| 2026-04-23 20:43 | 55.12766 | -1.96569 | 26178 ft | 422 kts | 310° |
| 2026-04-23 20:43 | 55.14290 | -2.00739 | 25638 ft | 425 kts | 301° |
| 2026-04-23 20:43 | 55.15742 | -2.05291 | 25046 ft | 432 kts | 301° |
| 2026-04-23 20:44 | 55.17209 | -2.09886 | 24422 ft | 432 kts | 301° |
| 2026-04-23 20:44 | 55.18679 | -2.14461 | 23758 ft | 430 kts | 301° |
| 2026-04-23 20:44 | 55.20150 | -2.19007 | 23072 ft | 428 kts | 301° |
| 2026-04-23 20:44 | 55.21617 | -2.23520 | 22441 ft | 425 kts | 301° |
| 2026-04-23 20:45 | 55.23074 | -2.27991 | 21833 ft | 421 kts | 301° |
| 2026-04-23 20:45 | 55.24523 | -2.32433 | 21239 ft | 418 kts | 300° |
| 2026-04-23 20:45 | 55.25963 | -2.36856 | 20648 ft | 415 kts | 300° |
| 2026-04-23 20:45 | 55.27389 | -2.41246 | 20070 ft | 412 kts | 300° |
| 2026-04-23 20:46 | 55.28801 | -2.45597 | 19485 ft | 410 kts | 300° |
| 2026-04-23 20:46 | 55.30187 | -2.49876 | 18933 ft | 407 kts | 299° |
| 2026-04-23 20:46 | 55.31599 | -2.54246 | 18296 ft | 405 kts | 299° |
| 2026-04-23 20:46 | 55.32980 | -2.58529 | 17685 ft | 402 kts | 299° |
| 2026-04-23 20:47 | 55.34351 | -2.62787 | 17086 ft | 398 kts | 299° |
| 2026-04-23 20:47 | 55.35708 | -2.67010 | 16528 ft | 395 kts | 299° |
| 2026-04-23 20:47 | 55.37051 | -2.71195 | 15974 ft | 391 kts | 299° |
| 2026-04-23 20:47 | 55.38376 | -2.75331 | 15581 ft | 384 kts | 299° |
| 2026-04-23 20:48 | 55.39666 | -2.79366 | 14928 ft | 384 kts | 299° |
| 2026-04-23 20:48 | 55.40973 | -2.83461 | 14356 ft | 382 kts | 299° |
| 2026-04-23 20:48 | 55.42276 | -2.87518 | 13764 ft | 376 kts | 300° |
| 2026-04-23 20:48 | 55.43839 | -2.91095 | 13132 ft | 358 kts | 315° |
| 2026-04-23 20:49 | 55.45733 | -2.93668 | 12627 ft | 332 kts | 327° |
| 2026-04-23 20:49 | 55.47721 | -2.95568 | 11941 ft | 317 kts | 335° |
| 2026-04-23 20:49 | 55.49680 | -2.97056 | 11513 ft | 298 kts | 335° |
| 2026-04-23 20:49 | 55.51529 | -2.98437 | 11162 ft | 280 kts | 335° |
| 2026-04-23 20:50 | 55.53319 | -2.99780 | 10843 ft | 280 kts | 335° |
| 2026-04-23 20:50 | 55.55048 | -3.01086 | 10456 ft | 282 kts | 335° |
| 2026-04-23 20:50 | 55.56864 | -3.02463 | 10023 ft | 285 kts | 335° |
| 2026-04-23 20:50 | 55.58514 | -3.04290 | 9579 ft | 280 kts | 312° |
| 2026-04-23 20:51 | 55.59691 | -3.06997 | 9241 ft | 277 kts | 302° |
| 2026-04-23 20:51 | 55.60710 | -3.09884 | 8896 ft | 276 kts | 300° |
| 2026-04-23 20:51 | 55.61697 | -3.12780 | 8626 ft | 273 kts | 300° |
| 2026-04-23 20:51 | 55.62660 | -3.15627 | 8457 ft | 266 kts | 300° |
| 2026-04-23 20:52 | 55.63593 | -3.18400 | 8283 ft | 259 kts | 300° |
| 2026-04-23 20:52 | 55.64503 | -3.21115 | 8070 ft | 255 kts | 299° |
| 2026-04-23 20:52 | 55.65407 | -3.23820 | 7759 ft | 255 kts | 299° |
| 2026-04-23 20:52 | 55.66303 | -3.26519 | 7460 ft | 254 kts | 299° |
| 2026-04-23 20:53 | 55.67193 | -3.29206 | 7203 ft | 253 kts | 299° |
| 2026-04-23 20:53 | 55.68085 | -3.31906 | 6918 ft | 253 kts | 299° |
| 2026-04-23 20:53 | 55.68956 | -3.34550 | 6853 ft | 242 kts | 299° |
| 2026-04-23 20:53 | 55.69797 | -3.37102 | 6858 ft | 249 kts | 300° |
| 2026-04-23 20:54 | 55.70697 | -3.39861 | 6789 ft | 261 kts | 299° |
| 2026-04-23 20:54 | 55.71615 | -3.42694 | 6332 ft | 269 kts | 299° |
| 2026-04-23 20:54 | 55.72557 | -3.45598 | 5867 ft | 274 kts | 299° |
| 2026-04-23 20:54 | 55.73512 | -3.48518 | 5424 ft | 268 kts | 299° |
| 2026-04-23 20:55 | 55.74423 | -3.51291 | 5005 ft | 253 kts | 299° |
| 2026-04-23 20:55 | 55.75294 | -3.53939 | 4626 ft | 248 kts | 299° |
| 2026-04-23 20:55 | 55.76164 | -3.56600 | 4264 ft | 250 kts | 299° |
| 2026-04-23 20:55 | 55.77035 | -3.59278 | 3993 ft | 248 kts | 299° |
| 2026-04-23 20:56 | 55.77861 | -3.61823 | 3978 ft | 234 kts | 299° |
| 2026-04-23 20:56 | 55.78656 | -3.64261 | 3971 ft | 224 kts | 299° |
| 2026-04-23 20:56 | 55.79451 | -3.66689 | 3985 ft | 228 kts | 299° |
| 2026-04-23 20:56 | 55.80246 | -3.69110 | 3973 ft | 223 kts | 302° |
| 2026-04-23 20:57 | 55.81359 | -3.70954 | 3974 ft | 222 kts | 336° |
| 2026-04-23 20:57 | 55.82875 | -3.71328 | 3995 ft | 223 kts | 12° |
| 2026-04-23 20:57 | 55.84212 | -3.70106 | 4007 ft | 217 kts | 47° |
| 2026-04-23 20:57 | 55.84973 | -3.67847 | 3894 ft | 213 kts | 66° |
| 2026-04-23 20:58 | 55.85586 | -3.65438 | 3600 ft | 213 kts | 66° |
| 2026-04-23 20:58 | 55.86243 | -3.63095 | 3296 ft | 207 kts | 62° |
| 2026-04-23 20:58 | 55.86937 | -3.60969 | 3058 ft | 191 kts | 60° |
| 2026-04-23 20:58 | 55.87609 | -3.58993 | 2806 ft | 184 kts | 60° |
| 2026-04-23 20:59 | 55.88268 | -3.57057 | 2544 ft | 179 kts | 60° |
| 2026-04-23 20:59 | 55.88897 | -3.55207 | 2292 ft | 172 kts | 60° |
| 2026-04-23 20:59 | 55.89513 | -3.53394 | 2070 ft | 169 kts | 60° |
| 2026-04-23 20:59 | 55.90111 | -3.51636 | 1848 ft | 161 kts | 60° |
| 2026-04-23 21:00 | 55.90680 | -3.49963 | 1648 ft | 156 kts | 60° |
| 2026-04-23 21:00 | 55.91232 | -3.48337 | 1419 ft | 153 kts | 60° |
| 2026-04-23 21:00 | 55.91767 | -3.46762 | 1205 ft | 145 kts | 60° |
| 2026-04-23 21:00 | 55.92284 | -3.45240 | 1019 ft | 142 kts | 59° |
| 2026-04-23 21:01 | 55.92796 | -3.43731 | 828 ft | 141 kts | 59° |
| 2026-04-23 21:01 | 55.93298 | -3.42253 | 638 ft | 137 kts | 59° |
| 2026-04-23 21:01 | 55.93784 | -3.40828 | 435 ft | 133 kts | 59° |
| 2026-04-23 21:01 | 55.94263 | -3.39417 | 236 ft | 135 kts | 60° |
| 2026-04-23 21:02 | 55.94736 | -3.37997 | 121 ft | 128 kts | 59° |
| 2026-04-23 21:02 | 55.95154 | -3.36777 | 115 ft | 86 kts | 59° |
| 2026-04-23 21:02 | 55.95240 | -3.36465 | 113 ft | 4 kts | 96° |
| 2026-04-23 21:02 | 55.95215 | -3.36390 | 114 ft | 3 kts | 137° |
| 2026-04-23 21:03 | 55.95204 | -3.36374 | 116 ft | 0 kts | 141° |
| 2026-04-23 21:03 | 55.95189 | -3.36353 | 117 ft | 9 kts | 142° |
| 2026-04-23 21:04 | 55.95146 | -3.36249 | 116 ft | 13 kts | 114° |
| 2026-04-23 21:04 | 55.95108 | -3.36079 | 119 ft | 17 kts | 112° |
| 2026-04-23 21:04 | 55.95053 | -3.35875 | 117 ft | 19 kts | 134° |
| 2026-04-23 21:04 | 55.94995 | -3.35849 | 117 ft | 7 kts | 198° |
| 2026-04-23 21:05 | 55.94989 | -3.35856 | 116 ft | 0 kts | 209° |
| 2026-04-23 21:05 | 55.94979 | -3.35875 | 117 ft | 2 kts | 236° |
| 2026-04-23 21:05 | 55.94976 | -3.35887 | 119 ft | 2 kts | 244° |
| 2026-04-23 21:05 | 55.94971 | -3.35916 | 117 ft | 3 kts | 252° |
| 2026-04-23 21:06 | 55.94964 | -3.35960 | 117 ft | 4 kts | 254° |
| 2026-04-23 21:06 | 55.94955 | -3.36010 | 118 ft | 0 kts | 253° |